Time;durP1;ratioP1;P1;durP2;ratioP2;P2;SDS_P1;SDS_P2;PMS_P1;PMS_P2;Temp;Humidity;BMP_temperature;BMP_pressure;BME280_temperature;BME280_humidity;BME280_pressure;Samples;Min_cycle;Max_cycle;Signal;HPM_P1;HPM_P2
2021/05/23 00:02:13;;;;;;;3.43;1.33;;;10.60;81.00;;;;;;5033940;28;20248;-88
2021/05/23 00:04:38;;;;;;;3.47;1.13;;;10.10;80.50;;;;;;5045509;28;20190;-87
2021/05/23 00:07:05;;;;;;;1.40;1.30;;;10.10;80.50;;;;;;5025593;28;20202;-89
2021/05/23 00:09:31;;;;;;;1.40;0.90;;;10.10;80.50;;;;;;5028744;28;20278;-88
2021/05/23 00:11:57;;;;;;;1.53;1.43;;;10.10;80.50;;;;;;5046796;28;20209;-89
2021/05/23 00:14:23;;;;;;;0.87;0.87;;;10.10;80.50;;;;;;5035720;28;20230;-88
2021/05/23 00:16:49;;;;;;;4.37;1.20;;;10.00;81.10;;;;;;5030728;28;20254;-89
2021/05/23 00:19:15;;;;;;;3.53;1.10;;;;;;;;;;5029264;28;20263;-88
2021/05/23 00:21:41;;;;;;;2.07;1.03;;;9.90;82.10;;;;;;5043925;28;20184;-88
2021/05/23 00:24:09;;;;;;;3.00;1.10;;;9.90;82.70;;;;;;5044468;28;20655;-88
2021/05/23 00:26:35;;;;;;;1.43;1.30;;;9.90;83.30;;;;;;5048172;28;20694;-88
2021/05/23 00:29:01;;;;;;;2.17;1.00;;;9.80;83.30;;;;;;5032319;28;20224;-87
2021/05/23 00:31:27;;;;;;;2.37;1.07;;;9.80;83.70;;;;;;5031501;28;20229;-87
2021/05/23 00:33:53;;;;;;;1.33;1.00;;;9.70;84.10;;;;;;5026363;28;20214;-87
2021/05/23 00:36:18;;;;;;;0.90;0.90;;;9.70;84.60;;;;;;5033217;28;20207;-87
2021/05/23 00:38:44;;;;;;;0.90;0.90;;;9.70;85.20;;;;;;5043235;28;20219;-86
2021/05/23 00:41:11;;;;;;;1.43;1.20;;;9.60;85.60;;;;;;5044022;28;20224;-86
2021/05/23 00:43:37;;;;;;;1.97;1.20;;;10.30;86.10;;;;;;5046414;28;20274;-87
2021/05/23 00:46:02;;;;;;;1.10;1.00;;;9.50;87.00;;;;;;5035840;28;20183;-87
2021/05/23 00:48:28;;;;;;;1.67;1.13;;;9.40;87.70;;;;;;5039390;28;20920;-87
2021/05/23 00:50:54;;;;;;;1.27;1.00;;;9.40;87.60;;;;;;5049113;28;20217;-89
2021/05/23 00:53:21;;;;;;;2.23;1.20;;;9.40;87.90;;;;;;5031687;28;20305;-87
2021/05/23 00:55:46;;;;;;;2.70;1.33;;;9.30;87.70;;;;;;5043613;28;20192;-87
2021/05/23 00:58:13;;;;;;;1.77;1.33;;;9.30;88.20;;;;;;5033549;28;20314;-89
2021/05/23 01:00:42;;;;;;;1.40;1.30;;;9.60;88.80;;;;;;5042830;28;20284;-88
2021/05/23 01:03:26;;;;;;;3.13;1.30;;;9.30;88.90;;;;;;5027249;28;20256;-88
2021/05/23 01:06:00;;;;;;;1.27;1.17;;;9.30;88.90;;;;;;5027735;28;20244;-89
2021/05/23 01:08:27;;;;;;;2.23;1.20;;;9.30;88.40;;;;;;5049992;28;20564;-88
2021/05/23 01:11:01;;;;;;;1.37;1.00;;;9.20;88.30;;;;;;5031408;28;20770;-88
2021/05/23 01:13:55;;;;;;;1.80;1.00;;;9.20;88.90;;;;;;5040910;28;20179;-87
2021/05/23 01:16:32;;;;;;;3.00;1.10;;;9.20;89.00;;;;;;5034725;28;20317;-88
2021/05/23 01:19:14;;;;;;;1.23;1.00;;;9.20;88.90;;;;;;5036700;28;20286;-87
2021/05/23 01:21:45;;;;;;;2.70;1.20;;;9.10;88.80;;;;;;5042336;28;20199;-87
2021/05/23 01:24:25;;;;;;;1.10;1.00;;;9.30;89.80;;;;;;5037294;28;20221;-88
2021/05/23 01:26:54;;;;;;;3.00;1.10;;;9.20;89.10;;;;;;5029276;28;23201;-89
2021/05/23 01:29:21;;;;;;;1.33;0.80;;;9.10;89.40;;;;;;5028554;28;20221;-89
2021/05/23 01:31:47;;;;;;;2.53;0.83;;;9.30;90.00;;;;;;5042001;28;20296;-88
2021/05/23 01:34:23;;;;;;;1.50;1.10;;;9.00;90.30;;;;;;5026730;28;20245;-88
2021/05/23 01:36:53;;;;;;;2.67;1.27;;;9.00;90.00;;;;;;5041270;28;20250;-86
2021/05/23 01:39:19;;;;;;;1.50;1.33;;;9.00;90.30;;;;;;5043361;28;20268;-87
2021/05/23 01:41:47;;;;;;;1.33;0.97;;;9.00;90.70;;;;;;5029738;28;20683;-87
2021/05/23 01:44:12;;;;;;;2.13;1.10;;;9.20;90.90;;;;;;5028522;28;20214;-87
2021/05/23 01:46:39;;;;;;;2.03;1.03;;;9.10;90.90;;;;;;5034048;28;20184;-87
2021/05/23 01:49:05;;;;;;;0.90;0.90;;;9.10;91.10;;;;;;5026132;28;20212;-87
2021/05/23 01:51:31;;;;;;;1.97;1.27;;;9.10;91.20;;;;;;5043332;28;20357;-87
2021/05/23 01:53:59;;;;;;;1.60;1.40;;;9.10;91.00;;;;;;5027525;28;20190;-87
2021/05/23 01:56:24;;;;;;;1.10;0.90;;;9.20;90.90;;;;;;5030191;28;20241;-87
2021/05/23 01:58:50;;;;;;;1.37;1.00;;;9.20;91.10;;;;;;5033226;28;20223;-87
2021/05/23 02:01:16;;;;;;;1.77;1.00;;;9.20;90.70;;;;;;5049363;28;20259;-87
2021/05/23 02:03:41;;;;;;;2.30;1.30;;;9.30;90.20;;;;;;5049359;28;20245;-87
2021/05/23 02:06:07;;;;;;;1.20;1.07;;;9.30;90.60;;;;;;5040259;28;20223;-87
2021/05/23 02:08:33;;;;;;;0.93;0.90;;;9.40;89.10;;;;;;5037339;28;20227;-88
2021/05/23 02:11:07;;;;;;;2.70;1.40;;;9.50;87.90;;;;;;5028911;28;20716;-87
2021/05/23 02:13:33;;;;;;;1.73;1.20;;;;;;;;;;5031329;28;20677;-87
2021/05/23 02:15:59;;;;;;;1.53;0.90;;;9.50;87.10;;;;;;5049347;28;20195;-87
2021/05/23 02:18:25;;;;;;;1.40;1.27;;;9.50;87.90;;;;;;5035268;28;20239;-87
2021/05/23 02:20:51;;;;;;;1.97;1.30;;;9.50;87.50;;;;;;5033410;28;20195;-87
2021/05/23 02:23:22;;;;;;;1.73;1.00;;;9.60;87.60;;;;;;5044590;28;20305;-88
2021/05/23 02:25:49;;;;;;;1.30;1.10;;;9.50;87.60;;;;;;5027596;28;20198;-87
2021/05/23 02:28:16;;;;;;;2.13;1.20;;;9.60;87.50;;;;;;5045449;28;20196;-88
2021/05/23 02:30:51;;;;;;;1.63;1.10;;;9.70;88.20;;;;;;5047588;28;20315;-87
2021/05/23 02:33:18;;;;;;;2.00;1.10;;;9.60;87.60;;;;;;5025488;28;20227;-87
2021/05/23 02:35:50;;;;;;;2.63;1.43;;;9.70;85.80;;;;;;5032070;28;20637;-87
2021/05/23 02:38:16;;;;;;;1.30;1.20;;;9.70;86.40;;;;;;5032062;28;20240;-88
2021/05/23 02:40:43;;;;;;;2.60;1.30;;;9.70;86.00;;;;;;5035724;28;20180;-87
2021/05/23 02:43:10;;;;;;;3.20;1.70;;;9.70;86.40;;;;;;5034201;28;20555;-87
2021/05/23 02:45:36;;;;;;;5.30;1.80;;;9.70;86.80;;;;;;5028866;28;20207;-87
2021/05/23 02:48:06;;;;;;;2.60;1.93;;;9.70;86.10;;;;;;5022694;28;20227;-88
2021/05/23 02:50:35;;;;;;;3.43;2.07;;;9.70;86.60;;;;;;5044671;28;20777;-87
2021/05/23 02:53:02;;;;;;;2.87;2.10;;;9.80;86.60;;;;;;5035404;28;20219;-87
2021/05/23 02:55:28;;;;;;;1.70;1.53;;;9.80;85.30;;;;;;5040376;28;20561;-87
2021/05/23 02:57:54;;;;;;;1.73;1.33;;;9.80;84.40;;;;;;5044138;28;20349;-87
2021/05/23 03:00:22;;;;;;;1.43;1.30;;;9.80;85.10;;;;;;5031466;28;20231;-87
2021/05/23 03:02:49;;;;;;;1.50;1.20;;;10.50;84.70;;;;;;5029165;28;20307;-87
2021/05/23 03:05:18;;;;;;;3.63;1.43;;;9.80;85.30;;;;;;5043754;28;20219;-88
2021/05/23 03:07:47;;;;;;;3.13;1.50;;;9.90;85.40;;;;;;5026638;28;20195;-88
2021/05/23 03:10:35;;;;;;;2.73;1.60;;;9.90;85.10;;;;;;5035071;28;20209;-88
2021/05/23 03:13:02;;;;;;;2.93;1.70;;;9.90;84.50;;;;;;5040156;28;20207;-88
2021/05/23 03:15:29;;;;;;;3.97;1.70;;;9.90;84.90;;;;;;5047375;28;20220;-88
2021/05/23 03:17:55;;;;;;;2.30;1.60;;;9.90;85.40;;;;;;5035535;28;20250;-87
2021/05/23 03:20:22;;;;;;;4.13;1.80;;;10.20;85.10;;;;;;5046163;28;20281;-87
2021/05/23 03:22:52;;;;;;;1.80;1.40;;;9.80;86.20;;;;;;5025023;28;20213;-87
2021/05/23 03:25:19;;;;;;;4.30;1.50;;;9.80;86.70;;;;;;5044353;28;20196;-88
2021/05/23 03:27:45;;;;;;;3.77;1.60;;;9.70;86.80;;;;;;5031448;28;20653;-88
2021/05/23 03:30:14;;;;;;;2.60;1.97;;;9.90;86.90;;;;;;5048822;28;20191;-88
2021/05/23 03:32:41;;;;;;;2.33;1.80;;;9.90;87.00;;;;;;5035879;28;20231;-88
2021/05/23 03:35:08;;;;;;;1.20;1.10;;;9.90;86.80;;;;;;5036604;28;20304;-88
2021/05/23 03:37:34;;;;;;;1.40;1.30;;;9.90;86.80;;;;;;5026408;28;20265;-88
2021/05/23 03:40:00;;;;;;;3.10;1.80;;;9.80;86.60;;;;;;5040791;28;20555;-88
2021/05/23 03:42:25;;;;;;;2.13;1.53;;;9.80;87.20;;;;;;5034125;28;20187;-88
2021/05/23 03:44:51;;;;;;;5.07;1.70;;;9.90;87.00;;;;;;5032935;28;20242;-88
2021/05/23 03:47:17;;;;;;;2.57;1.50;;;9.90;86.80;;;;;;5045721;28;20209;-88
2021/05/23 03:49:42;;;;;;;1.00;1.00;;;9.90;86.70;;;;;;5029786;28;20200;-88
2021/05/23 03:52:11;;;;;;;1.43;1.33;;;9.90;86.00;;;;;;5043678;28;20316;-87
2021/05/23 03:54:37;;;;;;;1.33;1.10;;;9.90;85.40;;;;;;5033948;28;20212;-88
2021/05/23 03:57:07;;;;;;;2.13;1.33;;;9.90;84.50;;;;;;5034918;28;20283;-88
2021/05/23 03:59:33;;;;;;;2.17;1.37;;;10.50;84.60;;;;;;5032090;28;20253;-87
2021/05/23 04:01:59;;;;;;;4.47;1.70;;;9.90;84.30;;;;;;5033063;28;20231;-88
2021/05/23 04:04:25;;;;;;;3.17;1.57;;;10.00;83.60;;;;;;5047133;28;20188;-88
2021/05/23 04:06:50;;;;;;;1.43;1.33;;;10.00;83.30;;;;;;5044151;28;20221;-88
2021/05/23 04:09:19;;;;;;;2.00;1.00;;;10.10;83.00;;;;;;5035070;28;20632;-88
2021/05/23 04:11:49;;;;;;;1.97;1.43;;;10.10;82.10;;;;;;5045062;28;20254;-87
2021/05/23 04:14:15;;;;;;;3.97;1.63;;;10.10;82.40;;;;;;5033697;28;20230;-88
2021/05/23 04:16:40;;;;;;;2.07;1.30;;;10.20;82.00;;;;;;5033161;28;20555;-87
2021/05/23 04:19:06;;;;;;;1.10;1.00;;;10.40;81.20;;;;;;5044900;28;20659;-87
2021/05/23 04:21:33;;;;;;;3.27;1.40;;;10.20;80.60;;;;;;5035242;28;20234;-87
2021/05/23 04:23:59;;;;;;;2.83;1.53;;;10.20;79.80;;;;;;5044964;28;20338;-88
2021/05/23 04:26:24;;;;;;;0.97;0.93;;;10.20;79.60;;;;;;5030914;28;20651;-87
2021/05/23 04:28:50;;;;;;;2.63;1.20;;;10.20;78.30;;;;;;5042563;28;20310;-88
2021/05/23 04:31:16;;;;;;;3.43;1.13;;;10.20;78.50;;;;;;5045570;28;20576;-88
2021/05/23 04:33:41;;;;;;;1.50;1.40;;;10.30;78.70;;;;;;5046030;28;20217;-88
2021/05/23 04:36:07;;;;;;;1.70;1.27;;;10.50;76.70;;;;;;5046756;28;20216;-87
2021/05/23 04:38:32;;;;;;;2.33;1.40;;;10.50;77.30;;;;;;5034607;28;20264;-88
2021/05/23 04:40:58;;;;;;;3.30;1.67;;;10.50;77.00;;;;;;5046573;28;21064;-88
2021/05/23 04:43:24;;;;;;;1.17;1.07;;;10.60;76.60;;;;;;5032568;28;20238;-87
2021/05/23 04:45:49;;;;;;;1.70;1.43;;;10.50;76.00;;;;;;5039995;28;20654;-88
2021/05/23 04:48:16;;;;;;;0.90;0.87;;;10.40;76.50;;;;;;5040769;28;20224;-88
2021/05/23 04:50:42;;;;;;;1.43;1.00;;;10.50;76.40;;;;;;5027049;28;20578;-88
2021/05/23 04:53:08;;;;;;;1.53;1.27;;;11.20;77.60;;;;;;5034643;28;20255;-88
2021/05/23 04:55:34;;;;;;;1.50;1.40;;;10.50;77.00;;;;;;5043147;28;20221;-88
2021/05/23 04:58:00;;;;;;;2.80;1.70;;;10.50;76.80;;;;;;5034679;28;20652;-87
2021/05/23 05:00:26;;;;;;;2.80;1.20;;;10.50;76.90;;;;;;5032390;28;20219;-88
2021/05/23 05:02:51;;;;;;;1.43;1.33;;;10.60;76.50;;;;;;5047189;28;20192;-88
2021/05/23 05:05:19;;;;;;;2.07;1.00;;;10.60;75.10;;;;;;5031593;28;20237;-88
2021/05/23 05:07:45;;;;;;;1.83;1.27;;;10.60;74.60;;;;;;5030833;28;20196;-88
2021/05/23 05:10:11;;;;;;;1.43;1.33;;;10.70;74.20;;;;;;5026987;28;20199;-88
2021/05/23 05:12:37;;;;;;;2.03;1.23;;;11.00;74.30;;;;;;5026588;28;20220;-88
2021/05/23 05:15:04;;;;;;;1.73;1.47;;;11.20;73.20;;;;;;5040778;28;20198;-88
2021/05/23 05:17:30;;;;;;;1.67;1.40;;;11.30;72.20;;;;;;5027961;28;20214;-88
2021/05/23 05:19:55;;;;;;;2.67;1.20;;;11.20;72.70;;;;;;5027250;28;20200;-88
2021/05/23 05:22:21;;;;;;;0.83;0.83;;;11.10;72.20;;;;;;5046384;28;20222;-88
2021/05/23 05:24:47;;;;;;;1.47;1.20;;;11.00;73.00;;;;;;5028128;28;20227;-88
2021/05/23 05:27:13;;;;;;;1.20;1.10;;;10.90;72.90;;;;;;5038640;28;20219;-89
2021/05/23 05:29:39;;;;;;;1.13;0.93;;;10.80;72.80;;;;;;5036963;28;20732;-87
2021/05/23 05:32:05;;;;;;;1.50;1.10;;;10.90;72.90;;;;;;5030449;28;20299;-88
2021/05/23 05:34:31;;;;;;;1.40;1.20;;;11.00;73.00;;;;;;5036997;28;20207;-88
2021/05/23 05:36:57;;;;;;;1.93;1.33;;;;;;;;;;5041762;28;20700;-87
2021/05/23 05:39:23;;;;;;;1.83;1.47;;;10.80;72.80;;;;;;5046899;28;20294;-87
2021/05/23 05:41:48;;;;;;;1.87;1.20;;;11.00;73.10;;;;;;5046462;28;20225;-88
2021/05/23 05:44:14;;;;;;;0.90;0.83;;;11.30;73.30;;;;;;5042331;28;20192;-88
2021/05/23 05:46:40;;;;;;;2.10;1.30;;;11.40;73.00;;;;;;5042812;28;20188;-88
2021/05/23 05:49:05;;;;;;;1.33;1.23;;;11.40;71.50;;;;;;5047826;28;20202;-88
2021/05/23 05:51:31;;;;;;;1.77;1.40;;;11.50;69.60;;;;;;5052671;28;20194;-87
2021/05/23 05:53:56;;;;;;;1.87;1.27;;;13.10;71.10;;;;;;5052383;28;20281;-88
2021/05/23 05:56:22;;;;;;;1.77;1.40;;;11.30;69.40;;;;;;5036579;28;20677;-88
2021/05/23 05:58:48;;;;;;;2.63;1.20;;;11.30;69.90;;;;;;5025318;28;20269;-88
2021/05/23 06:01:13;;;;;;;1.27;1.17;;;11.30;70.60;;;;;;5030251;28;20244;-88
2021/05/23 06:03:39;;;;;;;1.40;1.20;;;11.50;70.40;;;;;;5044683;28;20228;-88
2021/05/23 06:06:06;;;;;;;1.20;1.07;;;11.70;69.50;;;;;;5051484;28;20202;-88
2021/05/23 06:08:32;;;;;;;1.27;1.10;;;11.60;68.20;;;;;;5044048;28;20226;-88
2021/05/23 06:10:58;;;;;;;1.40;1.30;;;11.70;68.10;;;;;;5037272;28;20233;-88
2021/05/23 06:13:23;;;;;;;1.60;1.20;;;11.50;68.20;;;;;;5028711;28;20553;-87
2021/05/23 06:15:49;;;;;;;2.70;1.37;;;11.80;68.80;;;;;;5043226;28;20695;-87
2021/05/23 06:18:14;;;;;;;2.57;1.23;;;12.00;67.30;;;;;;5052161;28;20219;-87
2021/05/23 06:20:40;;;;;;;1.70;1.37;;;12.20;66.00;;;;;;5047107;28;20230;-87
2021/05/23 06:23:07;;;;;;;1.20;1.10;;;12.50;65.90;;;;;;5043967;28;20267;-87
2021/05/23 06:25:32;;;;;;;1.27;0.93;;;13.00;63.90;;;;;;5031159;28;20211;-87
2021/05/23 06:27:58;;;;;;;2.00;1.50;;;12.90;62.50;;;;;;5031542;28;20206;-87
2021/05/23 06:30:24;;;;;;;1.70;1.13;;;12.80;63.70;;;;;;5031291;28;20219;-87
2021/05/23 06:32:49;;;;;;;1.83;1.73;;;12.60;63.50;;;;;;5050984;28;20191;-87
2021/05/23 06:35:17;;;;;;;1.40;1.23;;;12.50;64.50;;;;;;5052316;28;20263;-87
2021/05/23 06:37:44;;;;;;;3.10;1.20;;;12.60;65.30;;;;;;5034675;28;20218;-87
2021/05/23 06:40:11;;;;;;;1.50;1.40;;;12.80;63.60;;;;;;5025856;28;20223;-87
2021/05/23 06:42:36;;;;;;;1.90;1.57;;;12.70;62.70;;;;;;5040804;28;20533;-87
2021/05/23 06:45:03;;;;;;;3.50;1.20;;;12.60;63.30;;;;;;5037662;28;20222;-87
2021/05/23 06:47:28;;;;;;;2.43;1.73;;;12.80;63.00;;;;;;5033269;28;20283;-87
2021/05/23 06:49:54;;;;;;;1.93;1.20;;;12.80;63.30;;;;;;5031448;28;20242;-87
2021/05/23 06:52:19;;;;;;;2.13;1.10;;;13.00;63.60;;;;;;5047033;28;20601;-87
2021/05/23 06:54:45;;;;;;;1.10;1.00;;;13.10;61.50;;;;;;5048014;28;20222;-87
2021/05/23 06:57:12;;;;;;;2.57;1.40;;;13.20;61.10;;;;;;5034228;28;20259;-87
2021/05/23 06:59:37;;;;;;;1.20;1.20;;;13.20;62.20;;;;;;5027717;28;20230;-87
2021/05/23 07:02:03;;;;;;;1.00;1.00;;;13.20;60.80;;;;;;5048334;28;20215;-87
2021/05/23 07:04:29;;;;;;;1.37;1.27;;;13.10;61.20;;;;;;5037914;28;20187;-87
2021/05/23 07:06:54;;;;;;;0.90;0.90;;;13.00;61.80;;;;;;5052389;28;20188;-87
2021/05/23 07:09:20;;;;;;;1.13;1.03;;;13.20;62.20;;;;;;5054340;28;20932;-87
2021/05/23 07:11:46;;;;;;;2.07;0.93;;;13.40;60.10;;;;;;5051303;28;20200;-88
2021/05/23 07:14:11;;;;;;;1.77;1.50;;;13.40;60.70;;;;;;5037870;28;20190;-89
2021/05/23 07:16:37;;;;;;;1.10;1.10;;;13.40;60.70;;;;;;5038222;28;20714;-87
2021/05/23 07:19:03;;;;;;;1.10;1.00;;;13.60;60.50;;;;;;5049809;28;20195;-88
2021/05/23 07:21:28;;;;;;;1.30;1.20;;;13.90;59.00;;;;;;5038935;28;20298;-88
2021/05/23 07:23:54;;;;;;;2.73;1.10;;;14.00;55.50;;;;;;5038071;28;20314;-87
2021/05/23 07:26:20;;;;;;;1.03;0.77;;;14.10;55.60;;;;;;5033812;28;20212;-87
2021/05/23 07:28:46;;;;;;;2.37;1.00;;;14.30;55.40;;;;;;5033816;28;20254;-83
2021/05/23 07:31:12;;;;;;;1.00;0.80;;;14.50;55.10;;;;;;5050188;28;20183;-83
2021/05/23 07:33:38;;;;;;;0.70;0.70;;;14.30;53.80;;;;;;5037504;28;20289;-83
2021/05/23 07:36:06;;;;;;;3.40;1.27;;;14.20;54.40;;;;;;5048920;28;20215;-83
2021/05/23 07:38:32;;;;;;;1.23;1.07;;;14.10;54.90;;;;;;5049441;28;20251;-84
2021/05/23 07:40:58;;;;;;;1.83;1.20;;;13.70;54.70;;;;;;5046773;28;20188;-84
2021/05/23 07:43:23;;;;;;;0.80;0.80;;;13.80;53.80;;;;;;5046132;28;20212;-84
2021/05/23 07:45:49;;;;;;;2.43;1.07;;;14.00;53.30;;;;;;5048681;28;20193;-84
2021/05/23 07:48:14;;;;;;;1.93;1.00;;;14.20;52.90;;;;;;5049075;28;20227;-85
2021/05/23 07:50:40;;;;;;;1.43;1.00;;;14.50;51.20;;;;;;5037004;28;20195;-83
2021/05/23 07:53:06;;;;;;;1.37;1.20;;;14.90;50.70;;;;;;5038753;28;20199;-84
2021/05/23 07:55:32;;;;;;;1.47;0.90;;;15.00;50.00;;;;;;5035779;28;20748;-83
2021/05/23 07:57:57;;;;;;;1.47;0.90;;;14.60;49.80;;;;;;5050354;28;20219;-84
2021/05/23 08:00:23;;;;;;;0.70;0.70;;;14.60;49.00;;;;;;5042373;28;20225;-83
2021/05/23 08:02:49;;;;;;;1.10;0.90;;;14.60;48.20;;;;;;5054630;28;20593;-83
2021/05/23 08:05:14;;;;;;;1.80;0.97;;;14.80;49.00;;;;;;5048871;28;20232;-84
2021/05/23 08:07:40;;;;;;;1.00;0.80;;;14.60;49.20;;;;;;5053519;28;20197;-84
2021/05/23 08:10:07;;;;;;;2.00;0.90;;;14.80;49.90;;;;;;5046314;28;20224;-84
2021/05/23 08:12:33;;;;;;;3.97;1.10;;;14.80;48.90;;;;;;5045330;28;20243;-83
2021/05/23 08:15:00;;;;;;;1.70;1.13;;;14.70;49.90;;;;;;5040520;28;20197;-84
2021/05/23 08:17:26;;;;;;;1.77;0.93;;;14.60;49.50;;;;;;5052849;28;20690;-84
2021/05/23 08:19:52;;;;;;;0.80;0.70;;;14.70;50.50;;;;;;5047142;28;20194;-84
2021/05/23 08:22:17;;;;;;;3.10;1.03;;;14.80;49.70;;;;;;5048070;28;20201;-85
2021/05/23 08:24:43;;;;;;;0.93;0.93;;;15.20;49.50;;;;;;5049933;28;20198;-83
2021/05/23 08:27:09;;;;;;;1.13;1.03;;;15.50;48.60;;;;;;5047047;28;20230;-85
2021/05/23 08:29:34;;;;;;;0.77;0.70;;;15.70;48.60;;;;;;5032698;28;20280;-84
2021/05/23 08:32:01;;;;;;;2.57;0.77;;;;;;;;;;5028021;28;20211;-86
2021/05/23 08:34:27;;;;;;;1.77;0.90;;;15.70;46.60;;;;;;5034625;28;20202;-85
2021/05/23 08:36:53;;;;;;;1.10;0.77;;;15.20;44.50;;;;;;5036222;28;20215;-84
2021/05/23 08:39:19;;;;;;;1.50;0.67;;;15.20;45.50;;;;;;5036742;28;20349;-85
2021/05/23 08:41:46;;;;;;;1.50;1.00;;;15.10;46.00;;;;;;5046915;28;20650;-85
2021/05/23 08:44:20;;;;;;;1.40;1.03;;;15.10;45.60;;;;;;5049047;28;20220;-87
2021/05/23 08:46:51;;;;;;;1.43;1.20;;;15.20;45.90;;;;;;5038085;28;20333;-86
2021/05/23 08:49:24;;;;;;;0.70;0.70;;;15.60;46.10;;;;;;5031544;28;20192;-86
2021/05/23 08:51:51;;;;;;;1.63;1.00;;;15.60;45.40;;;;;;5036055;28;20247;-85
2021/05/23 08:54:18;;;;;;;1.33;0.87;;;15.80;45.60;;;;;;5045171;28;20258;-86
2021/05/23 08:56:45;;;;;;;1.80;0.80;;;16.20;45.20;;;;;;5044413;28;20233;-86
2021/05/23 08:59:12;;;;;;;0.93;0.83;;;16.30;45.10;;;;;;5045665;28;20236;-85
2021/05/23 09:01:39;;;;;;;0.80;0.80;;;16.10;44.50;;;;;;5034137;28;20200;-85
2021/05/23 09:04:13;;;;;;;1.13;0.90;;;15.70;47.00;;;;;;5047244;28;20239;-85
2021/05/23 09:06:40;;;;;;;0.90;0.80;;;15.90;45.80;;;;;;5032470;28;20228;-87
2021/05/23 09:09:07;;;;;;;0.83;0.70;;;15.70;45.30;;;;;;5042786;28;20203;-86
2021/05/23 09:11:34;;;;;;;2.27;1.00;;;15.60;46.10;;;;;;5030434;28;20227;-83
2021/05/23 09:14:00;;;;;;;1.07;1.00;;;;;;;;;;5038530;28;20214;-83
2021/05/23 09:16:42;;;;;;;2.30;1.10;;;15.80;44.90;;;;;;5044932;28;20318;-84
2021/05/23 09:19:08;;;;;;;0.93;0.83;;;15.70;42.70;;;;;;5034404;28;20198;-84
2021/05/23 09:21:36;;;;;;;2.37;1.10;;;15.80;42.50;;;;;;5038753;28;20223;-84
2021/05/23 09:24:05;;;;;;;1.77;0.90;;;15.50;43.80;;;;;;5034105;28;20198;-84
2021/05/23 09:26:47;;;;;;;1.27;0.90;;;15.70;45.80;;;;;;5026768;28;20216;-85
2021/05/23 09:29:22;;;;;;;1.60;0.90;;;15.70;45.30;;;;;;5034688;28;20211;-85
2021/05/23 09:32:08;;;;;;;0.70;0.70;;;15.60;46.40;;;;;;5029276;28;20661;-86
2021/05/23 09:34:33;;;;;;;1.13;0.97;;;15.50;45.60;;;;;;5048105;28;20198;-86
2021/05/23 09:36:59;;;;;;;1.10;0.90;;;15.60;45.80;;;;;;5028225;28;20230;-87
2021/05/23 09:39:39;;;;;;;2.13;0.87;;;15.60;45.80;;;;;;5042366;28;20195;-87
2021/05/23 09:42:06;;;;;;;0.83;0.83;;;15.60;45.40;;;;;;5030599;28;20280;-87
2021/05/23 09:44:32;;;;;;;1.10;1.00;;;15.50;44.80;;;;;;5032984;28;20220;-87
2021/05/23 09:47:09;;;;;;;0.93;0.93;;;15.20;46.10;;;;;;5047514;28;20234;-86
2021/05/23 09:50:03;;;;;;;1.03;0.93;;;15.00;45.10;;;;;;5034624;28;20187;-86
2021/05/23 09:52:38;;;;;;;0.90;0.80;;;15.00;46.70;;;;;;5031961;28;20195;-86
2021/05/23 09:55:06;;;;;;;1.57;1.10;;;15.10;45.30;;;;;;5032744;28;20226;-87
2021/05/23 09:57:32;;;;;;;0.87;0.87;;;15.30;45.00;;;;;;5026720;28;20295;-86
2021/05/23 10:00:08;;;;;;;0.80;0.80;;;15.50;43.90;;;;;;5031587;28;20242;-87
2021/05/23 10:02:59;;;;;;;3.17;1.37;;;16.30;42.40;;;;;;5048225;28;23944;-89
2021/05/23 10:05:26;;;;;;;3.00;1.20;;;16.50;42.60;;;;;;5038063;28;20301;-87
2021/05/23 10:07:52;;;;;;;4.40;1.47;;;16.50;40.90;;;;;;5054299;28;20215;-86
2021/05/23 10:10:19;;;;;;;0.70;0.70;;;16.40;41.40;;;;;;5057415;28;20179;-86
2021/05/23 10:12:45;;;;;;;1.00;0.90;;;16.00;42.70;;;;;;5051589;28;20195;-86
2021/05/23 10:15:15;;;;;;;2.53;1.10;;;15.30;42.10;;;;;;5053444;28;20214;-87
2021/05/23 10:17:41;;;;;;;0.70;0.70;;;15.30;42.90;;;;;;5038000;28;20730;-86
2021/05/23 10:20:10;;;;;;;1.57;0.97;;;15.20;43.50;;;;;;5038222;28;20260;-86
2021/05/23 10:22:37;;;;;;;2.07;1.10;;;15.10;45.50;;;;;;5051253;28;20200;-86
2021/05/23 10:25:12;;;;;;;0.70;0.70;;;15.10;46.40;;;;;;5037596;28;20690;-85
2021/05/23 10:27:42;;;;;;;2.90;1.13;;;15.20;45.80;;;;;;5034589;28;20222;-87
2021/05/23 10:30:09;;;;;;;1.87;0.97;;;15.50;45.00;;;;;;5039931;28;20587;-86
2021/05/23 10:32:37;;;;;;;1.03;0.73;;;15.60;44.70;;;;;;5042958;28;20216;-86
2021/05/23 10:35:17;;;;;;;2.97;1.40;;;15.60;44.10;;;;;;5028491;28;20230;-86
2021/05/23 10:37:44;;;;;;;4.83;1.43;;;15.60;45.20;;;;;;5034894;28;20231;-86
2021/05/23 10:40:22;;;;;;;1.77;0.73;;;15.60;45.30;;;;;;5040080;28;20199;-86
2021/05/23 10:42:53;;;;;;;6.10;1.70;;;15.50;44.40;;;;;;5038724;28;20212;-86
2021/05/23 10:45:32;;;;;;;2.03;0.93;;;15.30;44.30;;;;;;5037705;28;20227;-85
2021/05/23 10:48:10;;;;;;;2.87;1.20;;;15.10;52.70;;;;;;5037041;28;20238;-86
2021/05/23 10:50:37;;;;;;;1.33;0.87;;;15.20;53.40;;;;;;5033681;28;20613;-86
2021/05/23 10:53:04;;;;;;;1.23;0.80;;;14.50;59.00;;;;;;5037566;28;20215;-86
2021/05/23 10:55:31;;;;;;;1.87;1.20;;;15.70;58.20;;;;;;5037356;28;20183;-87
2021/05/23 10:57:57;;;;;;;1.20;0.80;;;14.60;58.50;;;;;;5033321;28;20220;-87
2021/05/23 11:00:28;;;;;;;3.40;1.20;;;15.00;56.60;;;;;;5040910;28;20216;-85
2021/05/23 11:02:56;;;;;;;1.30;1.10;;;14.60;53.60;;;;;;5035380;28;20224;-85
2021/05/23 11:05:25;;;;;;;0.50;0.50;;;14.50;54.70;;;;;;5035244;28;20242;-86
2021/05/23 11:08:00;;;;;;;0.70;0.70;;;13.90;59.40;;;;;;5031135;28;20310;-86
2021/05/23 11:10:47;;;;;;;1.07;0.60;;;13.20;60.70;;;;;;5036926;28;20278;-85
2021/05/23 11:13:15;;;;;;;0.80;0.80;;;13.20;60.40;;;;;;5032268;28;20190;-85
2021/05/23 11:15:47;;;;;;;0.87;0.73;;;13.70;61.60;;;;;;5034280;28;20223;-84
2021/05/23 11:18:21;;;;;;;1.50;0.83;;;14.60;58.50;;;;;;5047470;28;20216;-83
2021/05/23 11:21:10;;;;;;;1.80;0.83;;;14.60;59.10;;;;;;5036914;28;20271;-85
2021/05/23 11:23:54;;;;;;;0.70;0.70;;;14.80;60.00;;;;;;5036043;28;20222;-84
2021/05/23 11:26:23;;;;;;;0.73;0.73;;;15.20;50.70;;;;;;5033708;28;20294;-83
2021/05/23 11:28:54;;;;;;;0.93;0.60;;;15.30;52.00;;;;;;5032366;28;20194;-84
2021/05/23 11:31:27;;;;;;;2.33;1.13;;;15.50;49.30;;;;;;5021924;28;20222;-85
2021/05/23 11:33:53;;;;;;;1.00;0.80;;;15.70;51.00;;;;;;5037270;28;20215;-85
2021/05/23 11:36:24;;;;;;;0.87;0.77;;;16.20;49.90;;;;;;5037884;28;20226;-87
2021/05/23 11:38:54;;;;;;;1.80;1.20;;;16.80;47.30;;;;;;5035974;28;20243;-84
2021/05/23 11:41:30;;;;;;;4.33;2.37;;;15.70;46.00;;;;;;5046529;28;20541;-86
2021/05/23 11:43:57;;;;;;;1.47;0.90;;;16.60;48.00;;;;;;5034237;28;20213;-85
2021/05/23 11:46:23;;;;;;;1.10;1.00;;;16.60;54.90;;;;;;5050596;28;20196;-84
2021/05/23 11:48:50;;;;;;;1.30;1.20;;;15.30;61.20;;;;;;5033107;28;20220;-84
2021/05/23 11:51:22;;;;;;;1.83;1.43;;;14.30;65.10;;;;;;5049774;28;20644;-83
2021/05/23 11:53:50;;;;;;;1.23;1.13;;;14.00;67.30;;;;;;5046441;28;20214;-84
2021/05/23 11:56:22;;;;;;;1.40;1.30;;;14.20;66.90;;;;;;5030030;28;20692;-83
2021/05/23 11:58:57;;;;;;;2.30;1.40;;;14.30;67.60;;;;;;5051768;28;20196;-84
2021/05/23 12:01:30;;;;;;;1.83;1.00;;;15.30;60.50;;;;;;5031148;28;20707;-86
2021/05/23 12:03:56;;;;;;;0.90;0.90;;;;;;;;;;5043960;28;20263;-85
2021/05/23 12:06:22;;;;;;;0.83;0.83;;;18.10;50.80;;;;;;5047119;28;20205;-85
2021/05/23 12:08:48;;;;;;;1.83;0.97;;;18.40;48.70;;;;;;5032925;28;20197;-85
2021/05/23 12:11:14;;;;;;;1.40;0.90;;;19.30;45.10;;;;;;5026555;28;20192;-85
2021/05/23 12:13:40;;;;;;;1.10;0.70;;;19.70;42.40;;;;;;5037714;28;20166;-85
2021/05/23 12:16:07;;;;;;;0.50;0.50;;;19.90;43.10;;;;;;5039023;28;20188;-86
2021/05/23 12:18:44;;;;;;;1.20;1.10;;;20.00;40.30;;;;;;5048247;28;20219;-84
2021/05/23 12:21:13;;;;;;;0.60;0.47;;;20.50;40.30;;;;;;5035546;28;20224;-84
2021/05/23 12:23:41;;;;;;;1.13;0.50;;;21.60;38.30;;;;;;5039444;28;20210;-85
2021/05/23 12:26:11;;;;;;;0.40;0.40;;;22.70;34.80;;;;;;5036071;28;20238;-83
2021/05/23 12:28:48;;;;;;;0.50;0.40;;;23.10;32.20;;;;;;5036096;28;20561;-82
2021/05/23 12:31:16;;;;;;;1.17;0.87;;;22.50;32.90;;;;;;5040412;28;20505;-83
2021/05/23 12:33:57;;;;;;;1.17;0.50;;;20.00;36.50;;;;;;5031813;28;20221;-83
2021/05/23 12:36:26;;;;;;;0.73;0.60;;;20.00;37.80;;;;;;5036717;28;20289;-80
2021/05/23 12:39:08;;;;;;;1.07;0.83;;;19.50;37.60;;;;;;5039729;28;20579;-82
2021/05/23 12:41:40;;;;;;;1.30;0.77;;;17.80;42.60;;;;;;5052879;28;20564;-83
2021/05/23 12:44:16;;;;;;;0.83;0.83;;;17.70;43.50;;;;;;5038100;28;20602;-83
2021/05/23 12:46:42;;;;;;;0.90;0.90;;;17.00;46.50;;;;;;5044450;28;20226;-82
2021/05/23 12:49:15;;;;;;;2.87;0.93;;;15.40;55.20;;;;;;5037964;28;20216;-83
2021/05/23 12:51:46;;;;;;;2.67;0.90;;;15.40;56.40;;;;;;5039040;28;20219;-82
2021/05/23 12:54:26;;;;;;;1.20;0.90;;;15.20;61.20;;;;;;5044160;28;20221;-82
2021/05/23 12:56:52;;;;;;;1.77;0.97;;;15.10;60.40;;;;;;5040009;28;20320;-82